sensor_id;sensor_type;location;lat;lon;timestamp;pressure;altitude;pressure_sealevel;temperature;humidity
56198;BME280;42700;42.524;12.052;2022-07-30T00:00:55;96346.69;;;24.73;100.00
56198;BME280;42700;42.524;12.052;2022-07-30T00:03:20;96342.84;;;24.74;100.00
56198;BME280;42700;42.524;12.052;2022-07-30T00:05:46;96325.47;;;24.75;100.00
56198;BME280;42700;42.524;12.052;2022-07-30T00:08:11;96318.44;;;24.74;100.00
56198;BME280;42700;42.524;12.052;2022-07-30T00:10:37;96286.69;;;24.75;100.00
56198;BME280;42700;42.524;12.052;2022-07-30T00:13:03;95909.00;;;24.81;100.00
56198;BME280;42700;42.524;12.052;2022-07-30T00:15:29;95885.81;;;24.75;100.00
56198;BME280;42700;42.524;12.052;2022-07-30T00:17:55;95871.63;;;24.78;100.00
56198;BME280;42700;42.524;12.052;2022-07-30T00:20:20;95854.25;;;24.79;100.00
56198;BME280;42700;42.524;12.052;2022-07-30T00:22:46;95841.63;;;24.83;100.00
56198;BME280;42700;42.524;12.052;2022-07-30T00:25:12;95841.00;;;24.86;100.00
56198;BME280;42700;42.524;12.052;2022-07-30T00:27:37;95840.41;;;24.90;100.00
56198;BME280;42700;42.524;12.052;2022-07-30T00:30:03;95843.59;;;24.92;100.00
56198;BME280;42700;42.524;12.052;2022-07-30T00:32:29;95828.72;;;24.89;100.00
56198;BME280;42700;42.524;12.052;2022-07-30T00:34:54;95819.94;;;24.83;100.00
56198;BME280;42700;42.524;12.052;2022-07-30T00:37:20;95802.03;;;24.82;100.00
56198;BME280;42700;42.524;12.052;2022-07-30T00:39:46;95808.00;;;24.93;100.00
56198;BME280;42700;42.524;12.052;2022-07-30T00:42:11;95789.78;;;24.94;100.00
56198;BME280;42700;42.524;12.052;2022-07-30T00:44:37;95803.50;;;24.89;100.00
56198;BME280;42700;42.524;12.052;2022-07-30T00:47:02;95804.63;;;24.88;100.00
56198;BME280;42700;42.524;12.052;2022-07-30T00:49:28;95804.63;;;24.88;100.00
56198;BME280;42700;42.524;12.052;2022-07-30T00:51:53;95802.88;;;24.92;100.00
56198;BME280;42700;42.524;12.052;2022-07-30T00:54:19;95794.91;;;24.95;100.00
56198;BME280;42700;42.524;12.052;2022-07-30T00:56:45;95789.31;;;24.92;100.00
56198;BME280;42700;42.524;12.052;2022-07-30T00:59:12;95783.25;;;24.95;100.00
56198;BME280;42700;42.524;12.052;2022-07-30T01:01:38;95769.34;;;24.96;100.00
56198;BME280;42700;42.524;12.052;2022-07-30T01:04:03;95756.25;;;24.98;100.00
56198;BME280;42700;42.524;12.052;2022-07-30T01:06:32;95746.69;;;25.01;100.00
56198;BME280;42700;42.524;12.052;2022-07-30T01:08:57;95732.31;;;25.00;100.00
56198;BME280;42700;42.524;12.052;2022-07-30T01:11:25;95729.91;;;24.99;100.00
56198;BME280;42700;42.524;12.052;2022-07-30T01:13:52;95736.94;;;25.00;100.00
56198;BME280;42700;42.524;12.052;2022-07-30T01:16:18;95715.84;;;24.97;100.00
56198;BME280;42700;42.524;12.052;2022-07-30T01:18:44;95717.94;;;25.00;100.00
56198;BME280;42700;42.524;12.052;2022-07-30T01:21:35;95699.56;;;24.97;100.00
56198;BME280;42700;42.524;12.052;2022-07-30T01:24:06;95696.69;;;24.93;100.00
56198;BME280;42700;42.524;12.052;2022-07-30T01:26:33;95695.09;;;24.92;100.00
56198;BME280;42700;42.524;12.052;2022-07-30T01:28:59;95700.34;;;24.89;100.00
56198;BME280;42700;42.524;12.052;2022-07-30T01:31:25;95703.06;;;24.89;100.00
56198;BME280;42700;42.524;12.052;2022-07-30T01:33:51;95702.28;;;24.88;100.00
56198;BME280;42700;42.524;12.052;2022-07-30T01:36:19;95699.88;;;24.86;100.00
56198;BME280;42700;42.524;12.052;2022-07-30T01:38:46;95720.63;;;24.82;100.00
56198;BME280;42700;42.524;12.052;2022-07-30T01:41:13;95724.47;;;24.81;100.00
56198;BME280;42700;42.524;12.052;2022-07-30T01:43:39;95744.56;;;24.80;100.00
56198;BME280;42700;42.524;12.052;2022-07-30T01:46:06;95746.81;;;24.78;100.00
56198;BME280;42700;42.524;12.052;2022-07-30T01:48:37;95757.50;;;24.75;100.00
56198;BME280;42700;42.524;12.052;2022-07-30T01:51:07;95764.66;;;24.71;100.00
56198;BME280;42700;42.524;12.052;2022-07-30T01:53:35;95766.72;;;24.65;100.00
56198;BME280;42700;42.524;12.052;2022-07-30T01:56:01;95765.41;;;24.62;100.00
56198;BME280;42700;42.524;12.052;2022-07-30T01:58:28;95759.03;;;24.58;100.00
56198;BME280;42700;42.524;12.052;2022-07-30T02:00:56;95749.59;;;24.56;100.00
56198;BME280;42700;42.524;12.052;2022-07-30T02:03:23;95749.59;;;24.56;100.00
56198;BME280;42700;42.524;12.052;2022-07-30T02:05:50;95749.59;;;24.56;100.00
56198;BME280;42700;42.524;12.052;2022-07-30T02:08:36;95748.19;;;24.58;100.00
56198;BME280;42700;42.524;12.052;2022-07-30T02:11:06;95745.78;;;24.57;100.00
56198;BME280;42700;42.524;12.052;2022-07-30T02:13:33;95753.91;;;24.57;100.00
56198;BME280;42700;42.524;12.052;2022-07-30T02:18:32;95754.66;;;24.48;100.00
56198;BME280;42700;42.524;12.052;2022-07-30T02:21:03;95757.69;;;24.47;100.00
56198;BME280;42700;42.524;12.052;2022-07-30T02:23:30;95754.00;;;24.43;100.00
56198;BME280;42700;42.524;12.052;2022-07-30T02:25:58;95765.16;;;24.41;100.00
56198;BME280;42700;42.524;12.052;2022-07-30T02:28:24;95759.38;;;24.34;100.00
56198;BME280;42700;42.524;12.052;2022-07-30T02:30:54;95733.94;;;24.21;100.00
56198;BME280;42700;42.524;12.052;2022-07-30T02:33:21;95692.28;;;24.08;100.00
56198;BME280;42700;42.524;12.052;2022-07-30T02:35:48;95660.03;;;23.98;100.00
56198;BME280;42700;42.524;12.052;2022-07-30T02:38:14;95651.38;;;23.96;100.00
56198;BME280;42700;42.524;12.052;2022-07-30T02:40:42;95647.56;;;23.97;100.00
56198;BME280;42700;42.524;12.052;2022-07-30T02:43:08;95651.38;;;23.96;100.00
56198;BME280;42700;42.524;12.052;2022-07-30T02:45:34;95653.00;;;23.97;100.00
56198;BME280;42700;42.524;12.052;2022-07-30T02:48:01;95669.44;;;24.01;100.00
56198;BME280;42700;42.524;12.052;2022-07-30T02:50:28;95685.53;;;23.97;100.00
56198;BME280;42700;42.524;12.052;2022-07-30T02:52:55;95656.91;;;23.82;100.00
56198;BME280;42700;42.524;12.052;2022-07-30T02:55:22;95634.66;;;23.71;100.00
56198;BME280;42700;42.524;12.052;2022-07-30T02:57:49;95630.50;;;23.65;100.00
56198;BME280;42700;42.524;12.052;2022-07-30T03:00:16;95648.97;;;23.63;100.00
56198;BME280;42700;42.524;12.052;2022-07-30T03:02:42;95653.41;;;23.59;100.00
56198;BME280;42700;42.524;12.052;2022-07-30T03:05:09;95652.41;;;23.55;100.00
56198;BME280;42700;42.524;12.052;2022-07-30T03:07:35;95647.63;;;23.52;100.00
56198;BME280;42700;42.524;12.052;2022-07-30T03:10:02;95648.88;;;23.46;100.00
56198;BME280;42700;42.524;12.052;2022-07-30T03:12:28;95640.25;;;23.44;100.00
56198;BME280;42700;42.524;12.052;2022-07-30T03:14:54;95647.88;;;23.42;100.00
56198;BME280;42700;42.524;12.052;2022-07-30T03:17:20;95662.53;;;23.40;100.00
56198;BME280;42700;42.524;12.052;2022-07-30T03:19:48;95662.34;;;23.37;100.00
56198;BME280;42700;42.524;12.052;2022-07-30T03:22:15;95660.56;;;23.32;100.00
56198;BME280;42700;42.524;12.052;2022-07-30T03:24:41;95621.91;;;23.18;100.00
56198;BME280;42700;42.524;12.052;2022-07-30T03:27:08;95611.88;;;23.18;100.00
56198;BME280;42700;42.524;12.052;2022-07-30T03:29:34;95619.09;;;23.23;100.00
56198;BME280;42700;42.524;12.052;2022-07-30T03:32:01;95623.09;;;23.26;100.00
56198;BME280;42700;42.524;12.052;2022-07-30T03:34:28;95641.91;;;23.31;100.00
56198;BME280;42700;42.524;12.052;2022-07-30T03:36:53;95654.53;;;23.35;100.00
56198;BME280;42700;42.524;12.052;2022-07-30T03:39:19;95658.69;;;23.42;100.00
56198;BME280;42700;42.524;12.052;2022-07-30T03:41:46;95693.78;;;23.47;100.00
56198;BME280;42700;42.524;12.052;2022-07-30T03:44:13;95727.63;;;23.58;100.00
56198;BME280;42700;42.524;12.052;2022-07-30T03:46:39;95767.53;;;23.66;100.00
56198;BME280;42700;42.524;12.052;2022-07-30T03:49:07;95783.19;;;23.69;100.00
56198;BME280;42700;42.524;12.052;2022-07-30T03:51:33;95792.44;;;23.68;100.00
56198;BME280;42700;42.524;12.052;2022-07-30T03:53:59;95814.00;;;23.73;100.00
56198;BME280;42700;42.524;12.052;2022-07-30T03:56:25;95810.47;;;23.73;100.00
56198;BME280;42700;42.524;12.052;2022-07-30T03:58:51;95815.88;;;23.73;100.00
56198;BME280;42700;42.524;12.052;2022-07-30T04:01:16;95811.88;;;23.70;100.00
56198;BME280;42700;42.524;12.052;2022-07-30T04:03:42;95816.41;;;23.61;100.00
56198;BME280;42700;42.524;12.052;2022-07-30T04:06:08;95828.25;;;23.65;100.00
56198;BME280;42700;42.524;12.052;2022-07-30T04:08:33;95822.72;;;23.70;100.00
56198;BME280;42700;42.524;12.052;2022-07-30T04:10:58;95816.81;;;23.68;100.00
56198;BME280;42700;42.524;12.052;2022-07-30T04:13:24;95817.19;;;23.75;100.00
56198;BME280;42700;42.524;12.052;2022-07-30T04:18:25;95746.88;;;23.70;100.00
56198;BME280;42700;42.524;12.052;2022-07-30T04:20:51;95719.63;;;23.53;100.00
56198;BME280;42700;42.524;12.052;2022-07-30T04:23:17;95725.44;;;23.60;100.00
56198;BME280;42700;42.524;12.052;2022-07-30T04:25:43;95712.63;;;23.52;100.00
56198;BME280;42700;42.524;12.052;2022-07-30T04:28:10;95700.38;;;23.54;100.00
56198;BME280;42700;42.524;12.052;2022-07-30T04:30:36;95685.56;;;23.52;100.00
56198;BME280;42700;42.524;12.052;2022-07-30T04:33:02;95688.06;;;23.48;100.00
56198;BME280;42700;42.524;12.052;2022-07-30T04:35:28;95685.16;;;23.45;100.00
56198;BME280;42700;42.524;12.052;2022-07-30T04:37:54;95686.28;;;23.44;100.00
56198;BME280;42700;42.524;12.052;2022-07-30T04:40:20;95690.59;;;23.45;100.00
56198;BME280;42700;42.524;12.052;2022-07-30T04:42:45;95717.06;;;23.48;100.00
56198;BME280;42700;42.524;12.052;2022-07-30T04:45:11;95727.88;;;23.48;100.00
56198;BME280;42700;42.524;12.052;2022-07-30T04:47:36;95740.94;;;23.46;100.00
56198;BME280;42700;42.524;12.052;2022-07-30T04:50:03;95753.88;;;23.49;100.00
56198;BME280;42700;42.524;12.052;2022-07-30T04:52:30;95746.72;;;23.53;100.00
56198;BME280;42700;42.524;12.052;2022-07-30T04:55:01;95740.53;;;23.52;100.00
56198;BME280;42700;42.524;12.052;2022-07-30T04:57:27;95752.53;;;23.60;100.00
56198;BME280;42700;42.524;12.052;2022-07-30T04:59:53;95748.69;;;23.61;100.00
56198;BME280;42700;42.524;12.052;2022-07-30T05:02:19;95719.81;;;23.56;100.00
56198;BME280;42700;42.524;12.052;2022-07-30T05:04:48;95720.22;;;23.64;100.00
56198;BME280;42700;42.524;12.052;2022-07-30T05:07:14;95717.53;;;23.72;100.00
56198;BME280;42700;42.524;12.052;2022-07-30T05:09:42;95714.09;;;23.81;100.00
56198;BME280;42700;42.524;12.052;2022-07-30T05:12:07;95702.66;;;23.84;100.00
56198;BME280;42700;42.524;12.052;2022-07-30T05:14:33;95702.41;;;23.94;100.00
56198;BME280;42700;42.524;12.052;2022-07-30T05:16:59;95702.13;;;24.04;100.00
56198;BME280;42700;42.524;12.052;2022-07-30T05:19:25;95691.66;;;24.11;100.00
56198;BME280;42700;42.524;12.052;2022-07-30T05:21:50;95681.16;;;24.19;100.00
56198;BME280;42700;42.524;12.052;2022-07-30T05:24:16;95671.47;;;24.26;100.00
56198;BME280;42700;42.524;12.052;2022-07-30T05:26:42;95642.91;;;24.29;100.00
56198;BME280;42700;42.524;12.052;2022-07-30T05:29:08;95638.47;;;24.33;100.00
56198;BME280;42700;42.524;12.052;2022-07-30T05:31:33;95643.75;;;24.38;100.00
56198;BME280;42700;42.524;12.052;2022-07-30T05:33:59;95631.47;;;24.49;100.00
56198;BME280;42700;42.524;12.052;2022-07-30T05:36:25;95616.84;;;24.68;100.00
56198;BME280;42700;42.524;12.052;2022-07-30T05:38:50;95580.63;;;24.73;100.00
56198;BME280;42700;42.524;12.052;2022-07-30T05:41:16;95560.81;;;24.90;100.00
56198;BME280;42700;42.524;12.052;2022-07-30T05:43:42;95534.47;;;24.99;100.00
56198;BME280;42700;42.524;12.052;2022-07-30T05:46:07;95501.88;;;24.99;100.00
56198;BME280;42700;42.524;12.052;2022-07-30T05:48:33;95474.69;;;25.16;100.00
56198;BME280;42700;42.524;12.052;2022-07-30T05:51:00;95391.91;;;24.84;100.00
56198;BME280;42700;42.524;12.052;2022-07-30T05:53:25;95351.41;;;25.17;100.00
56198;BME280;42700;42.524;12.052;2022-07-30T05:55:51;95287.00;;;25.27;100.00
56198;BME280;42700;42.524;12.052;2022-07-30T05:58:16;95256.59;;;25.54;100.00
56198;BME280;42700;42.524;12.052;2022-07-30T06:00:43;95242.41;;;25.70;100.00
56198;BME280;42700;42.524;12.052;2022-07-30T06:03:08;95197.72;;;25.79;100.00
56198;BME280;42700;42.524;12.052;2022-07-30T06:05:34;95167.72;;;25.88;100.00
56198;BME280;42700;42.524;12.052;2022-07-30T06:07:59;95110.94;;;26.08;100.00
56198;BME280;42700;42.524;12.052;2022-07-30T06:10:25;95003.44;;;26.10;100.00
56198;BME280;42700;42.524;12.052;2022-07-30T06:12:51;94895.53;;;26.27;100.00
56198;BME280;42700;42.524;12.052;2022-07-30T06:15:16;94757.88;;;26.22;100.00
56198;BME280;42700;42.524;12.052;2022-07-30T06:17:45;94610.66;;;26.40;100.00
56198;BME280;42700;42.524;12.052;2022-07-30T06:20:11;94381.94;;;26.45;100.00
56198;BME280;42700;42.524;12.052;2022-07-30T06:22:37;94514.75;;;26.43;100.00
56198;BME280;42700;42.524;12.052;2022-07-30T06:25:03;94272.25;;;26.60;100.00
56198;BME280;42700;42.524;12.052;2022-07-30T06:27:28;93982.09;;;26.72;100.00
56198;BME280;42700;42.524;12.052;2022-07-30T06:29:54;93811.69;;;26.97;100.00
56198;BME280;42700;42.524;12.052;2022-07-30T06:32:19;93314.81;;;27.03;100.00
56198;BME280;42700;42.524;12.052;2022-07-30T06:34:45;92961.69;;;27.22;100.00
56198;BME280;42700;42.524;12.052;2022-07-30T06:37:10;92788.13;;;27.40;100.00
56198;BME280;42700;42.524;12.052;2022-07-30T06:39:36;92496.88;;;27.64;100.00
56198;BME280;42700;42.524;12.052;2022-07-30T06:42:01;92297.28;;;27.84;100.00
56198;BME280;42700;42.524;12.052;2022-07-30T06:44:27;91539.44;;;27.63;100.00
56198;BME280;42700;42.524;12.052;2022-07-30T06:46:53;91383.78;;;27.77;100.00
56198;BME280;42700;42.524;12.052;2022-07-30T06:49:18;91164.38;;;27.98;100.00
56198;BME280;42700;42.524;12.052;2022-07-30T06:51:43;90198.81;;;27.94;100.00
56198;BME280;42700;42.524;12.052;2022-07-30T06:54:10;90137.19;;;28.11;100.00
56198;BME280;42700;42.524;12.052;2022-07-30T06:56:36;89990.41;;;28.34;100.00
56198;BME280;42700;42.524;12.052;2022-07-30T06:59:02;89398.91;;;28.43;100.00
56198;BME280;42700;42.524;12.052;2022-07-30T07:01:27;89336.59;;;28.68;100.00
56198;BME280;42700;42.524;12.052;2022-07-30T07:03:53;88827.69;;;28.51;100.00
56198;BME280;42700;42.524;12.052;2022-07-30T07:06:18;88764.59;;;28.83;100.00
56198;BME280;42700;42.524;12.052;2022-07-30T07:08:44;88679.63;;;29.04;100.00
56198;BME280;42700;42.524;12.052;2022-07-30T07:11:09;88632.84;;;29.24;100.00
56198;BME280;42700;42.524;12.052;2022-07-30T07:13:35;88316.13;;;29.41;100.00
56198;BME280;42700;42.524;12.052;2022-07-30T07:16:00;87834.25;;;29.31;100.00
56198;BME280;42700;42.524;12.052;2022-07-30T07:18:26;86843.97;;;29.44;100.00
56198;BME280;42700;42.524;12.052;2022-07-30T07:20:51;86784.19;;;29.63;100.00
56198;BME280;42700;42.524;12.052;2022-07-30T07:23:17;87354.44;;;29.94;100.00
56198;BME280;42700;42.524;12.052;2022-07-30T07:25:42;86668.66;;;29.86;100.00
56198;BME280;42700;42.524;12.052;2022-07-30T07:28:08;86669.72;;;30.00;100.00
56198;BME280;42700;42.524;12.052;2022-07-30T07:30:34;85992.97;;;30.03;100.00
56198;BME280;42700;42.524;12.052;2022-07-30T07:32:59;86593.38;;;30.38;100.00
56198;BME280;42700;42.524;12.052;2022-07-30T07:35:25;85398.44;;;30.46;100.00
56198;BME280;42700;42.524;12.052;2022-07-30T07:37:50;85220.25;;;30.46;100.00
56198;BME280;42700;42.524;12.052;2022-07-30T07:40:16;84359.88;;;30.38;100.00
56198;BME280;42700;42.524;12.052;2022-07-30T07:42:42;85867.56;;;30.69;100.00
56198;BME280;42700;42.524;12.052;2022-07-30T07:45:07;85371.66;;;30.94;100.00
56198;BME280;42700;42.524;12.052;2022-07-30T07:47:46;85186.09;;;31.26;100.00
56198;BME280;42700;42.524;12.052;2022-07-30T07:50:13;85124.09;;;31.44;100.00
56198;BME280;42700;42.524;12.052;2022-07-30T07:52:39;83316.38;;;31.54;100.00
56198;BME280;42700;42.524;12.052;2022-07-30T07:55:05;84444.31;;;31.73;100.00
56198;BME280;42700;42.524;12.052;2022-07-30T07:57:37;84896.03;;;31.81;100.00
56198;BME280;42700;42.524;12.052;2022-07-30T08:00:02;84523.13;;;31.97;100.00
56198;BME280;42700;42.524;12.052;2022-07-30T08:02:28;83615.16;;;32.15;100.00
56198;BME280;42700;42.524;12.052;2022-07-30T08:04:54;82609.56;;;32.18;100.00
56198;BME280;42700;42.524;12.052;2022-07-30T08:07:19;83447.34;;;32.41;100.00
56198;BME280;42700;42.524;12.052;2022-07-30T08:09:45;80880.97;;;32.04;100.00
56198;BME280;42700;42.524;12.052;2022-07-30T08:12:13;85927.56;;;32.27;100.00
56198;BME280;42700;42.524;12.052;2022-07-30T08:14:38;81905.13;;;32.03;100.00
56198;BME280;42700;42.524;12.052;2022-07-30T08:17:04;80523.00;;;31.96;100.00
56198;BME280;42700;42.524;12.052;2022-07-30T08:19:29;83589.56;;;32.35;100.00
56198;BME280;42700;42.524;12.052;2022-07-30T08:21:55;79379.47;;;32.50;100.00
56198;BME280;42700;42.524;12.052;2022-07-30T08:24:23;83279.56;;;32.77;100.00
56198;BME280;42700;42.524;12.052;2022-07-30T08:26:49;80071.72;;;32.86;100.00
56198;BME280;42700;42.524;12.052;2022-07-30T08:29:15;77240.81;;;32.89;100.00
56198;BME280;42700;42.524;12.052;2022-07-30T08:31:40;73387.34;;;32.22;100.00
56198;BME280;42700;42.524;12.052;2022-07-30T08:34:06;74375.22;;;32.49;100.00
56198;BME280;42700;42.524;12.052;2022-07-30T08:36:31;75310.22;;;31.98;100.00
56198;BME280;42700;42.524;12.052;2022-07-30T08:38:57;76890.13;;;31.62;100.00
56198;BME280;42700;42.524;12.052;2022-07-30T08:41:22;77294.53;;;32.12;100.00
56198;BME280;42700;42.524;12.052;2022-07-30T08:43:49;73314.88;;;31.98;100.00
56198;BME280;42700;42.524;12.052;2022-07-30T08:46:15;74383.31;;;32.22;100.00
56198;BME280;42700;42.524;12.052;2022-07-30T08:48:42;72853.13;;;32.87;100.00
56198;BME280;42700;42.524;12.052;2022-07-30T08:51:07;73241.56;;;33.43;100.00
56198;BME280;42700;42.524;12.052;2022-07-30T08:53:34;70399.13;;;33.68;100.00
56198;BME280;42700;42.524;12.052;2022-07-30T08:56:00;69889.31;;;34.02;100.00
56198;BME280;42700;42.524;12.052;2022-07-30T08:58:27;73525.19;;;34.48;100.00
56198;BME280;42700;42.524;12.052;2022-07-30T09:00:53;73061.03;;;34.56;100.00
56198;BME280;42700;42.524;12.052;2022-07-30T09:03:19;69355.25;;;34.60;100.00
56198;BME280;42700;42.524;12.052;2022-07-30T09:05:45;68940.94;;;34.52;100.00
56198;BME280;42700;42.524;12.052;2022-07-30T09:08:11;67081.47;;;34.48;100.00
56198;BME280;42700;42.524;12.052;2022-07-30T09:10:36;66201.47;;;34.13;100.00
56198;BME280;42700;42.524;12.052;2022-07-30T09:13:02;64089.63;;;34.29;100.00
56198;BME280;42700;42.524;12.052;2022-07-30T09:15:27;69750.56;;;35.09;100.00
56198;BME280;42700;42.524;12.052;2022-07-30T09:17:54;69930.72;;;35.47;100.00
56198;BME280;42700;42.524;12.052;2022-07-30T09:20:21;68839.00;;;35.96;100.00
56198;BME280;42700;42.524;12.052;2022-07-30T09:22:48;70347.16;;;36.41;100.00
56198;BME280;42700;42.524;12.052;2022-07-30T09:25:14;65061.69;;;36.48;100.00
56198;BME280;42700;42.524;12.052;2022-07-30T09:27:43;61427.09;;;36.42;100.00
56198;BME280;42700;42.524;12.052;2022-07-30T09:30:09;70725.69;;;37.01;100.00
56198;BME280;42700;42.524;12.052;2022-07-30T09:32:48;70115.63;;;37.01;100.00
56198;BME280;42700;42.524;12.052;2022-07-30T09:35:14;67774.28;;;37.42;100.00
56198;BME280;42700;42.524;12.052;2022-07-30T09:37:40;67365.41;;;36.98;100.00
56198;BME280;42700;42.524;12.052;2022-07-30T09:40:12;67479.31;;;37.49;100.00
56198;BME280;42700;42.524;12.052;2022-07-30T09:42:38;66916.44;;;37.75;100.00
56198;BME280;42700;42.524;12.052;2022-07-30T09:50:03;67116.47;;;37.16;100.00
56198;BME280;42700;42.524;12.052;2022-07-30T09:52:29;57958.06;;;35.64;96.93
56198;BME280;42700;42.524;12.052;2022-07-30T09:54:54;60945.69;;;36.70;100.00
56198;BME280;42700;42.524;12.052;2022-07-30T09:57:20;54496.38;;;35.68;91.98
56198;BME280;42700;42.524;12.052;2022-07-30T09:59:45;59597.41;;;35.29;100.00
56198;BME280;42700;42.524;12.052;2022-07-30T10:02:11;55376.72;;;34.25;100.00
56198;BME280;42700;42.524;12.052;2022-07-30T10:04:36;57905.84;;;33.94;100.00
56198;BME280;42700;42.524;12.052;2022-07-30T10:07:02;63136.13;;;34.13;100.00
56198;BME280;42700;42.524;12.052;2022-07-30T10:09:31;68728.81;;;35.41;100.00
56198;BME280;42700;42.524;12.052;2022-07-30T10:12:01;63100.38;;;36.07;91.54
56198;BME280;42700;42.524;12.052;2022-07-30T10:14:28;60304.75;;;36.20;94.16
56198;BME280;42700;42.524;12.052;2022-07-30T10:16:55;73245.44;;;37.00;100.00
56198;BME280;42700;42.524;12.052;2022-07-30T10:19:22;75928.81;;;37.86;100.00
56198;BME280;42700;42.524;12.052;2022-07-30T10:21:48;61645.63;;;37.23;82.61
56198;BME280;42700;42.524;12.052;2022-07-30T10:24:17;63204.41;;;37.93;100.00
56198;BME280;42700;42.524;12.052;2022-07-30T10:26:44;56085.19;;;36.41;85.09
56198;BME280;42700;42.524;12.052;2022-07-30T10:29:10;54609.63;;;35.18;94.18
56198;BME280;42700;42.524;12.052;2022-07-30T10:31:36;58532.97;;;35.05;99.64
56198;BME280;42700;42.524;12.052;2022-07-30T10:34:01;60648.81;;;35.15;95.23
56198;BME280;42700;42.524;12.052;2022-07-30T10:36:27;71998.94;;;36.33;100.00
56198;BME280;42700;42.524;12.052;2022-07-30T10:38:53;73603.53;;;35.96;100.00
56198;BME280;42700;42.524;12.052;2022-07-30T10:49:13;72988.50;;;37.69;100.00
56198;BME280;42700;42.524;12.052;2022-07-30T10:51:57;72230.88;;;38.53;91.55
56198;BME280;42700;42.524;12.052;2022-07-30T10:57:13;70143.94;;;39.00;92.35
56198;BME280;42700;42.524;12.052;2022-07-30T11:02:17;69424.59;;;39.32;91.37
56198;BME280;42700;42.524;12.052;2022-07-30T11:04:42;66149.94;;;38.85;92.76
56198;BME280;42700;42.524;12.052;2022-07-30T11:09:45;55781.91;;;36.89;85.12
56198;BME280;42700;42.524;12.052;2022-07-30T11:12:11;57303.47;;;36.65;91.48
56198;BME280;42700;42.524;12.052;2022-07-30T11:17:15;50899.59;;;35.31;85.14
56198;BME280;42700;42.524;12.052;2022-07-30T11:20:08;49235.94;;;34.17;91.10
56198;BME280;42700;42.524;12.052;2022-07-30T11:22:33;53129.88;;;34.48;93.85
56198;BME280;42700;42.524;12.052;2022-07-30T11:27:46;59358.75;;;34.50;95.13
56198;BME280;42700;42.524;12.052;2022-07-30T11:33:26;60445.34;;;35.66;87.14
56198;BME280;42700;42.524;12.052;2022-07-30T11:35:27;64918.03;;;36.93;94.01
56198;BME280;42700;42.524;12.052;2022-07-30T11:40:21;71394.59;;;39.30;85.17
56198;BME280;42700;42.524;12.052;2022-07-30T11:42:48;71877.41;;;40.40;77.76
56198;BME280;42700;42.524;12.052;2022-07-30T11:47:48;69369.38;;;40.45;89.43
56198;BME280;42700;42.524;12.052;2022-07-30T11:50:20;67596.91;;;39.75;85.37
56198;BME280;42700;42.524;12.052;2022-07-30T11:52:49;64453.03;;;39.02;86.55
56198;BME280;42700;42.524;12.052;2022-07-30T11:55:23;60248.97;;;38.34;74.32
56198;BME280;42700;42.524;12.052;2022-07-30T11:57:50;62026.25;;;38.29;87.98
56198;BME280;42700;42.524;12.052;2022-07-30T12:00:16;62388.31;;;38.50;82.97
56198;BME280;42700;42.524;12.052;2022-07-30T12:02:42;60975.59;;;37.86;89.25
56198;BME280;42700;42.524;12.052;2022-07-30T12:05:08;58686.44;;;37.14;87.79
56198;BME280;42700;42.524;12.052;2022-07-30T12:07:35;58938.31;;;36.74;90.00
56198;BME280;42700;42.524;12.052;2022-07-30T12:10:13;56345.47;;;35.53;96.56
56198;BME280;42700;42.524;12.052;2022-07-30T12:12:39;62835.13;;;33.70;100.00
56198;BME280;42700;42.524;12.052;2022-07-30T12:15:05;69887.25;;;31.92;100.00
56198;BME280;42700;42.524;12.052;2022-07-30T12:17:40;83588.31;;;31.23;100.00
56198;BME280;42700;42.524;12.052;2022-07-30T12:20:16;92761.72;;;29.70;100.00
56198;BME280;42700;42.524;12.052;2022-07-30T12:22:42;96265.28;;;28.60;100.00
56198;BME280;42700;42.524;12.052;2022-07-30T12:25:08;96451.72;;;26.11;100.00
56198;BME280;42700;42.524;12.052;2022-07-30T12:27:34;97191.84;;;25.27;100.00
56198;BME280;42700;42.524;12.052;2022-07-30T12:30:00;95644.19;;;23.15;100.00
56198;BME280;42700;42.524;12.052;2022-07-30T12:32:26;96571.69;;;22.37;100.00
56198;BME280;42700;42.524;12.052;2022-07-30T12:34:55;96992.94;;;22.19;100.00
56198;BME280;42700;42.524;12.052;2022-07-30T12:37:21;97761.38;;;20.57;100.00
56198;BME280;42700;42.524;12.052;2022-07-30T12:39:46;97462.97;;;20.85;100.00
56198;BME280;42700;42.524;12.052;2022-07-30T12:42:16;97407.50;;;21.16;100.00
56198;BME280;42700;42.524;12.052;2022-07-30T12:44:43;97017.00;;;21.37;100.00
56198;BME280;42700;42.524;12.052;2022-07-30T12:52:48;96961.50;;;21.62;100.00
56198;BME280;42700;42.524;12.052;2022-07-30T12:55:15;96757.28;;;21.66;100.00
56198;BME280;42700;42.524;12.052;2022-07-30T12:57:58;96835.63;;;22.02;100.00
56198;BME280;42700;42.524;12.052;2022-07-30T13:00:28;96795.09;;;21.76;100.00
56198;BME280;42700;42.524;12.052;2022-07-30T13:02:54;96788.56;;;22.23;100.00
56198;BME280;42700;42.524;12.052;2022-07-30T13:05:20;96603.59;;;23.19;100.00
56198;BME280;42700;42.524;12.052;2022-07-30T13:08:07;96480.94;;;23.43;100.00
56198;BME280;42700;42.524;12.052;2022-07-30T13:10:33;96308.00;;;23.50;100.00
56198;BME280;42700;42.524;12.052;2022-07-30T13:12:58;96063.09;;;24.48;100.00
56198;BME280;42700;42.524;12.052;2022-07-30T13:15:24;95956.22;;;24.12;100.00
56198;BME280;42700;42.524;12.052;2022-07-30T13:17:50;96028.03;;;24.15;100.00
56198;BME280;42700;42.524;12.052;2022-07-30T13:20:17;96017.34;;;24.19;100.00
56198;BME280;42700;42.524;12.052;2022-07-30T13:22:46;96014.91;;;24.31;100.00